AIRPOD2 KFLL-KJAX
Flight info
| Callsign | AIRPOD2 |
|---|---|
| Flight time | 0h 51m |
| Altitude | 30000 |
| Route | FRSBE2 STYMY ORL/N0441F310 HAINY QUBEN2 |
| Aircraft | B738/M-SDE2E3FGHIRWXY/LB1 |
Departure
| Time | 2026-05-03 23:51 |
|---|---|
| Airport | Fort Lauderdale Hollywood International Airport (KFLL) |
Arrival
| Time | 2026-05-04 00:43 |
|---|---|
| Airport | Jacksonville International Airport (KJAX) |
| Time | Latitude | Longitude | Altitude | Speed | Heading |
|---|---|---|---|---|---|
| 2026-05-03 22:34 | 26.06969 | -80.15461 | 15 ft | 0 kts | 50° |
| 2026-05-03 22:35 | 26.06968 | -80.15461 | 15 ft | 0 kts | 50° |
| 2026-05-03 22:46 | 26.06969 | -80.15460 | 15 ft | 0 kts | 50° |
| 2026-05-03 22:46 | 26.06970 | -80.15459 | 15 ft | 0 kts | 50° |
| 2026-05-03 22:49 | 26.06970 | -80.15452 | 15 ft | 2 kts | 92° |
| 2026-05-03 22:49 | 26.06942 | -80.15413 | 15 ft | 13 kts | 125° |
| 2026-05-03 22:49 | 26.06924 | -80.15384 | 15 ft | 0 kts | 117° |
| 2026-05-03 22:50 | 26.06924 | -80.15383 | 15 ft | 0 kts | 117° |
| 2026-05-03 22:50 | 26.06924 | -80.15382 | 15 ft | 0 kts | 117° |
| 2026-05-03 22:50 | 26.06923 | -80.15380 | 15 ft | 0 kts | 117° |
| 2026-05-03 22:51 | 26.06923 | -80.15381 | 15 ft | 0 kts | 117° |
| 2026-05-03 22:51 | 26.06918 | -80.15365 | 15 ft | 7 kts | 104° |
| 2026-05-03 22:51 | 26.06922 | -80.15331 | 15 ft | 3 kts | 58° |
| 2026-05-03 22:51 | 26.06982 | -80.15307 | 15 ft | 14 kts | 356° |
| 2026-05-03 22:52 | 26.07066 | -80.15304 | 15 ft | 12 kts | 2° |
| 2026-05-03 22:52 | 26.07148 | -80.15301 | 15 ft | 12 kts | 0° |
| 2026-05-03 22:52 | 26.07228 | -80.15301 | 15 ft | 11 kts | 0° |
| 2026-05-03 22:52 | 26.07306 | -80.15300 | 16 ft | 11 kts | 0° |
| 2026-05-03 22:53 | 26.07386 | -80.15300 | 15 ft | 13 kts | 0° |
| 2026-05-03 22:53 | 26.07478 | -80.15319 | 15 ft | 14 kts | 315° |
| 2026-05-03 22:53 | 26.07490 | -80.15426 | 15 ft | 15 kts | 271° |
| 2026-05-03 22:53 | 26.07493 | -80.15560 | 15 ft | 20 kts | 271° |
| 2026-05-03 22:54 | 26.07493 | -80.15716 | 15 ft | 20 kts | 270° |
| 2026-05-03 22:54 | 26.07494 | -80.15870 | 15 ft | 20 kts | 271° |
| 2026-05-03 22:54 | 26.07494 | -80.15956 | 15 ft | 6 kts | 270° |
| 2026-05-03 22:54 | 26.07494 | -80.15998 | 15 ft | 3 kts | 270° |
| 2026-05-03 22:55 | 26.07494 | -80.16022 | 15 ft | 0 kts | 270° |
| 2026-05-03 22:58 | 26.07494 | -80.16023 | 15 ft | 0 kts | 270° |
| 2026-05-03 22:59 | 26.07494 | -80.16041 | 20 ft | 5 kts | 270° |
| 2026-05-03 22:59 | 26.07494 | -80.16100 | 15 ft | 0 kts | 270° |
| 2026-05-03 22:59 | 26.07494 | -80.16102 | 15 ft | 0 kts | 270° |
| 2026-05-03 23:01 | 26.07494 | -80.16108 | 15 ft | 3 kts | 271° |
| 2026-05-03 23:01 | 26.07495 | -80.16164 | 15 ft | 0 kts | 270° |
| 2026-05-03 23:01 | 26.07495 | -80.16166 | 15 ft | 0 kts | 270° |
| 2026-05-03 23:02 | 26.07495 | -80.16167 | 15 ft | 0 kts | 270° |
| 2026-05-03 23:02 | 26.07495 | -80.16196 | 15 ft | 7 kts | 270° |
| 2026-05-03 23:02 | 26.07495 | -80.16209 | 15 ft | 0 kts | 270° |
| 2026-05-03 23:02 | 26.07495 | -80.16212 | 15 ft | 0 kts | 270° |
| 2026-05-03 23:03 | 26.07495 | -80.16213 | 15 ft | 0 kts | 270° |
| 2026-05-03 23:05 | 26.07495 | -80.16220 | 15 ft | 1 kts | 270° |
| 2026-05-03 23:05 | 26.07495 | -80.16231 | 15 ft | 0 kts | 270° |
| 2026-05-03 23:06 | 26.07495 | -80.16233 | 15 ft | 0 kts | 270° |
| 2026-05-03 23:06 | 26.07495 | -80.16237 | 15 ft | 0 kts | 270° |
| 2026-05-03 23:06 | 26.07495 | -80.16238 | 15 ft | 0 kts | 270° |
| 2026-05-03 23:06 | 26.07495 | -80.16239 | 15 ft | 0 kts | 270° |
| 2026-05-03 23:07 | 26.07495 | -80.16240 | 15 ft | 0 kts | 270° |
| 2026-05-03 23:07 | 26.07495 | -80.16242 | 15 ft | 0 kts | 270° |
| 2026-05-03 23:07 | 26.07496 | -80.16283 | 15 ft | 4 kts | 270° |
| 2026-05-03 23:07 | 26.07496 | -80.16299 | 15 ft | 0 kts | 270° |
| 2026-05-03 23:08 | 26.07496 | -80.16301 | 15 ft | 0 kts | 270° |
| 2026-05-03 23:08 | 26.07496 | -80.16303 | 15 ft | 0 kts | 270° |
| 2026-05-03 23:08 | 26.07496 | -80.16307 | 15 ft | 1 kts | 270° |
| 2026-05-03 23:09 | 26.07496 | -80.16309 | 15 ft | 0 kts | 270° |
| 2026-05-03 23:09 | 26.07496 | -80.16310 | 15 ft | 0 kts | 270° |
| 2026-05-03 23:09 | 26.07496 | -80.16311 | 15 ft | 0 kts | 270° |
| 2026-05-03 23:10 | 26.07496 | -80.16313 | 15 ft | 0 kts | 270° |
| 2026-05-03 23:10 | 26.07496 | -80.16316 | 15 ft | 0 kts | 270° |
| 2026-05-03 23:10 | 26.07496 | -80.16315 | 15 ft | 1 kts | 270° |
| 2026-05-03 23:10 | 26.07496 | -80.16312 | 15 ft | 0 kts | 270° |
| 2026-05-03 23:13 | 26.07496 | -80.16331 | 15 ft | 9 kts | 270° |
| 2026-05-03 23:13 | 26.07497 | -80.16404 | 15 ft | 1 kts | 270° |
| 2026-05-03 23:13 | 26.07497 | -80.16406 | 15 ft | 0 kts | 270° |
| 2026-05-03 23:13 | 26.07497 | -80.16408 | 15 ft | 0 kts | 270° |
| 2026-05-03 23:14 | 26.07497 | -80.16425 | 15 ft | 6 kts | 270° |
| 2026-05-03 23:14 | 26.07497 | -80.16446 | 15 ft | 2 kts | 270° |
| 2026-05-03 23:14 | 26.07497 | -80.16453 | 15 ft | 0 kts | 270° |
| 2026-05-03 23:14 | 26.07497 | -80.16457 | 15 ft | 2 kts | 270° |
| 2026-05-03 23:15 | 26.07497 | -80.16477 | 15 ft | 0 kts | 270° |
| 2026-05-03 23:15 | 26.07497 | -80.16479 | 15 ft | 0 kts | 270° |
| 2026-05-03 23:15 | 26.07497 | -80.16483 | 15 ft | 1 kts | 270° |
| 2026-05-03 23:15 | 26.07497 | -80.16488 | 15 ft | 1 kts | 270° |
| 2026-05-03 23:16 | 26.07497 | -80.16493 | 15 ft | 1 kts | 270° |
| 2026-05-03 23:16 | 26.07497 | -80.16499 | 15 ft | 1 kts | 270° |
| 2026-05-03 23:16 | 26.07497 | -80.16501 | 15 ft | 0 kts | 270° |
| 2026-05-03 23:16 | 26.07497 | -80.16502 | 15 ft | 0 kts | 270° |
| 2026-05-03 23:17 | 26.07497 | -80.16504 | 15 ft | 0 kts | 270° |
| 2026-05-03 23:17 | 26.07497 | -80.16506 | 15 ft | 0 kts | 270° |
| 2026-05-03 23:17 | 26.07497 | -80.16507 | 15 ft | 0 kts | 270° |
| 2026-05-03 23:17 | 26.07497 | -80.16510 | 15 ft | 0 kts | 270° |
| 2026-05-03 23:18 | 26.07497 | -80.16513 | 15 ft | 0 kts | 270° |
| 2026-05-03 23:19 | 26.07497 | -80.16515 | 15 ft | 0 kts | 270° |
| 2026-05-03 23:27 | 26.07497 | -80.16521 | 15 ft | 3 kts | 270° |
| 2026-05-03 23:28 | 26.07497 | -80.16524 | 15 ft | 0 kts | 269° |
| 2026-05-03 23:37 | 26.07497 | -80.16541 | 15 ft | 9 kts | 270° |
| 2026-05-03 23:37 | 26.07497 | -80.16549 | 15 ft | 1 kts | 270° |
| 2026-05-03 23:40 | 26.07497 | -80.16576 | 15 ft | 7 kts | 270° |
| 2026-05-03 23:40 | 26.07504 | -80.16617 | 15 ft | 0 kts | 298° |
| 2026-05-03 23:42 | 26.07547 | -80.16642 | 16 ft | 3 kts | 355° |
| 2026-05-03 23:43 | 26.07548 | -80.16642 | 16 ft | 0 kts | 355° |
| 2026-05-03 23:45 | 26.07574 | -80.16643 | 15 ft | 0 kts | 0° |
| 2026-05-03 23:49 | 26.07606 | -80.16643 | 16 ft | 11 kts | 0° |
| 2026-05-03 23:49 | 26.07685 | -80.16607 | 17 ft | 14 kts | 70° |
| 2026-05-03 23:50 | 26.07695 | -80.16523 | 18 ft | 0 kts | 89° |
| 2026-05-03 23:50 | 26.07695 | -80.16520 | 18 ft | 2 kts | 89° |
| 2026-05-03 23:50 | 26.07694 | -80.16249 | 19 ft | 83 kts | 90° |
| 2026-05-03 23:51 | 26.07694 | -80.15299 | 29 ft | 158 kts | 90° |
| 2026-05-03 23:51 | 26.07678 | -80.13979 | 650 ft | 178 kts | 87° |
| 2026-05-03 23:51 | 26.07702 | -80.12554 | 1573 ft | 187 kts | 88° |
| 2026-05-03 23:51 | 26.07744 | -80.11101 | 2518 ft | 193 kts | 88° |
| 2026-05-03 23:52 | 26.07876 | -80.09525 | 3068 ft | 218 kts | 74° |
| 2026-05-03 23:52 | 26.08544 | -80.07925 | 3461 ft | 237 kts | 53° |
| 2026-05-03 23:52 | 26.09765 | -80.06701 | 4089 ft | 239 kts | 25° |
| 2026-05-03 23:52 | 26.11379 | -80.06062 | 4148 ft | 251 kts | 14° |
| 2026-05-03 23:53 | 26.13004 | -80.05508 | 4981 ft | 239 kts | 14° |
| 2026-05-03 23:53 | 26.14648 | -80.04915 | 5443 ft | 262 kts | 11° |
| 2026-05-03 23:53 | 26.16496 | -80.04948 | 5967 ft | 272 kts | 341° |
| 2026-05-03 23:53 | 26.18293 | -80.05628 | 6818 ft | 275 kts | 336° |
| 2026-05-03 23:54 | 26.20109 | -80.06351 | 7686 ft | 278 kts | 336° |
| 2026-05-03 23:54 | 26.21814 | -80.07331 | 8538 ft | 276 kts | 316° |
| 2026-05-03 23:54 | 26.23007 | -80.08973 | 9428 ft | 273 kts | 294° |
| 2026-05-03 23:54 | 26.23743 | -80.10916 | 10273 ft | 275 kts | 288° |
| 2026-05-03 23:55 | 26.24457 | -80.12986 | 10589 ft | 299 kts | 288° |
| 2026-05-03 23:55 | 26.25236 | -80.15236 | 10852 ft | 320 kts | 289° |
| 2026-05-03 23:55 | 26.26219 | -80.17511 | 11445 ft | 331 kts | 297° |
| 2026-05-03 23:55 | 26.27434 | -80.19702 | 12246 ft | 334 kts | 300° |
| 2026-05-03 23:56 | 26.28715 | -80.21874 | 13075 ft | 336 kts | 300° |
| 2026-05-03 23:56 | 26.30008 | -80.24055 | 13846 ft | 340 kts | 300° |
| 2026-05-03 23:56 | 26.31314 | -80.26283 | 14562 ft | 344 kts | 299° |
| 2026-05-03 23:56 | 26.32617 | -80.28535 | 15360 ft | 346 kts | 298° |
| 2026-05-03 23:57 | 26.33919 | -80.30803 | 16163 ft | 349 kts | 298° |
| 2026-05-03 23:57 | 26.35224 | -80.33093 | 16933 ft | 352 kts | 298° |
| 2026-05-03 23:57 | 26.36536 | -80.35403 | 17694 ft | 355 kts | 297° |
| 2026-05-03 23:57 | 26.37860 | -80.37740 | 18414 ft | 358 kts | 297° |
| 2026-05-03 23:58 | 26.39195 | -80.40100 | 19054 ft | 361 kts | 297° |
| 2026-05-03 23:58 | 26.40538 | -80.42473 | 19705 ft | 363 kts | 297° |
| 2026-05-03 23:58 | 26.41893 | -80.44868 | 20347 ft | 366 kts | 296° |
| 2026-05-03 23:58 | 26.43253 | -80.47275 | 20979 ft | 368 kts | 296° |
| 2026-05-03 23:59 | 26.44624 | -80.49702 | 21597 ft | 371 kts | 296° |
| 2026-05-03 23:59 | 26.46006 | -80.52149 | 22201 ft | 374 kts | 296° |
| 2026-05-03 23:59 | 26.47501 | -80.54555 | 22780 ft | 385 kts | 306° |
| 2026-05-03 23:59 | 26.49557 | -80.56491 | 23340 ft | 401 kts | 320° |
| 2026-05-04 00:00 | 26.52155 | -80.57793 | 23838 ft | 419 kts | 334° |
| 2026-05-04 00:00 | 26.54965 | -80.58720 | 24297 ft | 424 kts | 336° |
| 2026-05-04 00:00 | 26.57825 | -80.59585 | 24735 ft | 428 kts | 337° |
| 2026-05-04 00:00 | 26.60715 | -80.60445 | 25172 ft | 431 kts | 336° |
| 2026-05-04 00:01 | 26.63617 | -80.61322 | 25632 ft | 433 kts | 336° |
| 2026-05-04 00:01 | 26.66530 | -80.62221 | 26082 ft | 435 kts | 336° |
| 2026-05-04 00:01 | 26.69455 | -80.63139 | 26522 ft | 437 kts | 335° |
| 2026-05-04 00:01 | 26.72394 | -80.64071 | 26968 ft | 440 kts | 335° |
| 2026-05-04 00:02 | 26.75344 | -80.65012 | 27396 ft | 442 kts | 335° |
| 2026-05-04 00:02 | 26.78306 | -80.65957 | 27821 ft | 444 kts | 335° |
| 2026-05-04 00:02 | 26.81285 | -80.66908 | 28245 ft | 447 kts | 335° |
| 2026-05-04 00:02 | 26.84288 | -80.67865 | 28647 ft | 449 kts | 335° |
| 2026-05-04 00:03 | 26.87297 | -80.68825 | 29046 ft | 452 kts | 335° |
| 2026-05-04 00:03 | 26.90332 | -80.69794 | 29441 ft | 454 kts | 335° |
| 2026-05-04 00:03 | 26.93362 | -80.70800 | 29831 ft | 454 kts | 333° |
| 2026-05-04 00:03 | 26.96368 | -80.71911 | 30061 ft | 456 kts | 332° |
| 2026-05-04 00:04 | 27.02367 | -80.74243 | 30047 ft | 454 kts | 332° |
| 2026-05-04 00:04 | 27.08306 | -80.76531 | 30060 ft | 451 kts | 332° |
| 2026-05-04 00:05 | 27.14265 | -80.78801 | 30073 ft | 453 kts | 332° |
| 2026-05-04 00:05 | 27.20239 | -80.81065 | 30062 ft | 454 kts | 332° |
| 2026-05-04 00:06 | 27.26232 | -80.83340 | 30063 ft | 455 kts | 332° |
| 2026-05-04 00:06 | 27.32231 | -80.85621 | 30058 ft | 455 kts | 332° |
| 2026-05-04 00:07 | 27.38181 | -80.88013 | 30059 ft | 453 kts | 330° |
| 2026-05-04 00:07 | 27.44092 | -80.90477 | 30053 ft | 453 kts | 330° |
| 2026-05-04 00:08 | 27.50007 | -80.92936 | 30055 ft | 453 kts | 330° |
| 2026-05-04 00:08 | 27.55932 | -80.95385 | 30051 ft | 454 kts | 330° |
| 2026-05-04 00:09 | 27.61858 | -80.97832 | 30053 ft | 453 kts | 330° |
| 2026-05-04 00:09 | 27.67779 | -81.00280 | 30059 ft | 453 kts | 330° |
| 2026-05-04 00:10 | 27.72702 | -81.02318 | 30058 ft | 453 kts | 330° |
| 2026-05-04 00:10 | 27.78616 | -81.04770 | 30057 ft | 453 kts | 330° |
| 2026-05-04 00:11 | 27.84528 | -81.07223 | 30053 ft | 452 kts | 330° |
| 2026-05-04 00:11 | 27.90434 | -81.09676 | 30068 ft | 452 kts | 330° |
| 2026-05-04 00:12 | 27.96335 | -81.12131 | 30072 ft | 451 kts | 330° |
| 2026-05-04 00:12 | 28.02224 | -81.14583 | 30070 ft | 450 kts | 330° |
| 2026-05-04 00:13 | 28.08159 | -81.16915 | 30081 ft | 453 kts | 333° |
| 2026-05-04 00:13 | 28.14174 | -81.19028 | 30091 ft | 453 kts | 333° |
| 2026-05-04 00:14 | 28.20148 | -81.21133 | 30091 ft | 451 kts | 333° |
| 2026-05-04 00:14 | 28.26132 | -81.23283 | 30092 ft | 451 kts | 333° |
| 2026-05-04 00:15 | 28.32101 | -81.25444 | 30089 ft | 450 kts | 333° |
| 2026-05-04 00:15 | 28.38053 | -81.27601 | 30086 ft | 448 kts | 333° |
| 2026-05-04 00:16 | 28.43983 | -81.29751 | 30087 ft | 447 kts | 333° |
| 2026-05-04 00:16 | 28.49897 | -81.31898 | 30094 ft | 445 kts | 333° |
| 2026-05-04 00:17 | 28.55931 | -81.33704 | 30090 ft | 459 kts | 344° |
| 2026-05-04 00:17 | 28.62375 | -81.34166 | 30105 ft | 466 kts | 348° |
| 2026-05-04 00:18 | 28.68858 | -81.34488 | 30099 ft | 467 kts | 348° |
| 2026-05-04 00:18 | 28.75341 | -81.34874 | 30097 ft | 467 kts | 348° |
| 2026-05-04 00:19 | 28.81835 | -81.35300 | 30097 ft | 467 kts | 347° |
| 2026-05-04 00:19 | 28.85045 | -81.35508 | 30081 ft | 456 kts | 347° |
| 2026-05-04 00:19 | 28.88181 | -81.35711 | 30086 ft | 448 kts | 347° |
| 2026-05-04 00:20 | 28.94147 | -81.36109 | 29632 ft | 440 kts | 347° |
| 2026-05-04 00:20 | 28.97166 | -81.36304 | 29124 ft | 427 kts | 347° |
| 2026-05-04 00:20 | 29.00086 | -81.36492 | 28671 ft | 414 kts | 347° |
| 2026-05-04 00:21 | 29.02925 | -81.36681 | 28188 ft | 404 kts | 347° |
| 2026-05-04 00:21 | 29.05691 | -81.36870 | 27724 ft | 394 kts | 346° |
| 2026-05-04 00:21 | 29.08376 | -81.37058 | 27276 ft | 392 kts | 346° |
| 2026-05-04 00:21 | 29.11130 | -81.37261 | 26837 ft | 404 kts | 347° |
| 2026-05-04 00:22 | 29.13997 | -81.37476 | 26365 ft | 421 kts | 347° |
| 2026-05-04 00:22 | 29.16920 | -81.37679 | 25844 ft | 417 kts | 348° |
| 2026-05-04 00:22 | 29.19774 | -81.37863 | 25348 ft | 405 kts | 348° |
| 2026-05-04 00:22 | 29.22549 | -81.38045 | 24875 ft | 394 kts | 347° |
| 2026-05-04 00:23 | 29.25256 | -81.38228 | 24410 ft | 386 kts | 347° |
| 2026-05-04 00:23 | 29.27910 | -81.38413 | 23939 ft | 379 kts | 347° |
| 2026-05-04 00:23 | 29.30527 | -81.38593 | 23426 ft | 377 kts | 347° |
| 2026-05-04 00:23 | 29.33173 | -81.38777 | 22934 ft | 387 kts | 348° |
| 2026-05-04 00:24 | 29.35916 | -81.38971 | 22442 ft | 400 kts | 348° |
| 2026-05-04 00:24 | 29.38675 | -81.39155 | 21932 ft | 392 kts | 348° |
| 2026-05-04 00:24 | 29.41356 | -81.39325 | 21448 ft | 381 kts | 348° |
| 2026-05-04 00:24 | 29.43967 | -81.39493 | 20988 ft | 370 kts | 348° |
| 2026-05-04 00:25 | 29.46507 | -81.39663 | 20551 ft | 363 kts | 348° |
| 2026-05-04 00:25 | 29.49005 | -81.39833 | 20117 ft | 356 kts | 348° |
| 2026-05-04 00:25 | 29.51480 | -81.40004 | 19713 ft | 359 kts | 348° |
| 2026-05-04 00:25 | 29.54016 | -81.40233 | 19282 ft | 371 kts | 342° |
| 2026-05-04 00:26 | 29.56393 | -81.41210 | 18800 ft | 356 kts | 322° |
| 2026-05-04 00:26 | 29.58251 | -81.42924 | 18323 ft | 333 kts | 308° |
| 2026-05-04 00:26 | 29.59845 | -81.44789 | 17815 ft | 322 kts | 306° |
| 2026-05-04 00:26 | 29.61364 | -81.46622 | 17374 ft | 312 kts | 306° |
| 2026-05-04 00:27 | 29.62844 | -81.48404 | 16968 ft | 305 kts | 306° |
| 2026-05-04 00:27 | 29.64307 | -81.50142 | 16591 ft | 301 kts | 307° |
| 2026-05-04 00:27 | 29.65786 | -81.51890 | 16204 ft | 311 kts | 307° |
| 2026-05-04 00:27 | 29.67334 | -81.53719 | 15720 ft | 324 kts | 308° |
| 2026-05-04 00:28 | 29.68901 | -81.55544 | 15280 ft | 316 kts | 308° |
| 2026-05-04 00:28 | 29.70429 | -81.57298 | 14851 ft | 305 kts | 308° |
| 2026-05-04 00:28 | 29.71904 | -81.58991 | 14456 ft | 295 kts | 308° |
| 2026-05-04 00:28 | 29.73334 | -81.60641 | 14072 ft | 290 kts | 308° |
| 2026-05-04 00:29 | 29.74749 | -81.62278 | 13648 ft | 287 kts | 308° |
| 2026-05-04 00:29 | 29.76219 | -81.63872 | 13219 ft | 301 kts | 318° |
| 2026-05-04 00:29 | 29.78180 | -81.64945 | 12875 ft | 325 kts | 340° |
| 2026-05-04 00:29 | 29.80436 | -81.65308 | 12567 ft | 335 kts | 349° |
| 2026-05-04 00:30 | 29.82780 | -81.65486 | 12215 ft | 331 kts | 351° |
| 2026-05-04 00:30 | 29.85065 | -81.65637 | 11882 ft | 327 kts | 351° |
| 2026-05-04 00:30 | 29.87298 | -81.65803 | 11573 ft | 324 kts | 351° |
| 2026-05-04 00:30 | 29.89533 | -81.65992 | 11255 ft | 321 kts | 351° |
| 2026-05-04 00:31 | 29.91760 | -81.66190 | 10944 ft | 320 kts | 351° |
| 2026-05-04 00:31 | 29.93971 | -81.66393 | 10623 ft | 317 kts | 351° |
| 2026-05-04 00:31 | 29.96114 | -81.66717 | 10315 ft | 303 kts | 347° |
| 2026-05-04 00:31 | 29.98143 | -81.67116 | 10030 ft | 289 kts | 346° |
| 2026-05-04 00:32 | 30.00062 | -81.67519 | 9815 ft | 275 kts | 346° |
| 2026-05-04 00:32 | 30.01891 | -81.68051 | 9439 ft | 266 kts | 337° |
| 2026-05-04 00:32 | 30.03594 | -81.68850 | 9158 ft | 263 kts | 334° |
| 2026-05-04 00:32 | 30.05262 | -81.69707 | 8890 ft | 262 kts | 333° |
| 2026-05-04 00:33 | 30.06935 | -81.70571 | 8629 ft | 265 kts | 334° |
| 2026-05-04 00:33 | 30.10328 | -81.72293 | 8089 ft | 266 kts | 335° |
| 2026-05-04 00:33 | 30.12021 | -81.73138 | 7825 ft | 265 kts | 335° |
| 2026-05-04 00:34 | 30.13708 | -81.73975 | 7565 ft | 263 kts | 335° |
| 2026-05-04 00:34 | 30.15312 | -81.74768 | 7318 ft | 262 kts | 335° |
| 2026-05-04 00:34 | 30.16989 | -81.75594 | 7060 ft | 261 kts | 336° |
| 2026-05-04 00:34 | 30.18663 | -81.76418 | 6802 ft | 261 kts | 336° |
| 2026-05-04 00:35 | 30.20329 | -81.77236 | 6552 ft | 260 kts | 336° |
| 2026-05-04 00:35 | 30.21991 | -81.78053 | 6281 ft | 259 kts | 336° |
| 2026-05-04 00:35 | 30.23645 | -81.78865 | 6015 ft | 258 kts | 336° |
| 2026-05-04 00:35 | 30.25296 | -81.79675 | 5749 ft | 258 kts | 336° |
| 2026-05-04 00:36 | 30.26946 | -81.80485 | 5489 ft | 257 kts | 336° |
| 2026-05-04 00:36 | 30.28586 | -81.81291 | 5235 ft | 256 kts | 336° |
| 2026-05-04 00:36 | 30.30231 | -81.82100 | 4985 ft | 259 kts | 336° |
| 2026-05-04 00:36 | 30.31879 | -81.82910 | 4717 ft | 255 kts | 336° |
| 2026-05-04 00:37 | 30.33502 | -81.83708 | 4433 ft | 251 kts | 336° |
| 2026-05-04 00:37 | 30.35087 | -81.84488 | 4188 ft | 244 kts | 336° |
| 2026-05-04 00:37 | 30.36626 | -81.85245 | 3958 ft | 238 kts | 337° |
| 2026-05-04 00:37 | 30.38135 | -81.85988 | 3718 ft | 233 kts | 337° |
| 2026-05-04 00:38 | 30.39618 | -81.86718 | 3484 ft | 229 kts | 337° |
| 2026-05-04 00:38 | 30.41069 | -81.87432 | 3255 ft | 225 kts | 338° |
| 2026-05-04 00:38 | 30.42525 | -81.88023 | 3008 ft | 219 kts | 357° |
| 2026-05-04 00:38 | 30.43921 | -81.87604 | 2810 ft | 206 kts | 41° |
| 2026-05-04 00:39 | 30.44657 | -81.86274 | 2649 ft | 195 kts | 74° |
| 2026-05-04 00:39 | 30.45102 | -81.84785 | 2468 ft | 196 kts | 70° |
| 2026-05-04 00:39 | 30.45582 | -81.83296 | 2269 ft | 197 kts | 72° |
| 2026-05-04 00:39 | 30.46036 | -81.81814 | 2124 ft | 191 kts | 72° |
| 2026-05-04 00:40 | 30.46461 | -81.80411 | 1909 ft | 178 kts | 72° |
| 2026-05-04 00:40 | 30.46857 | -81.79106 | 1678 ft | 166 kts | 73° |
| 2026-05-04 00:40 | 30.47226 | -81.77890 | 1466 ft | 154 kts | 73° |
| 2026-05-04 00:40 | 30.47567 | -81.76762 | 1276 ft | 142 kts | 73° |
| 2026-05-04 00:41 | 30.47882 | -81.75725 | 1083 ft | 135 kts | 73° |
| 2026-05-04 00:41 | 30.48160 | -81.74808 | 927 ft | 133 kts | 72° |
| 2026-05-04 00:41 | 30.48467 | -81.73796 | 750 ft | 134 kts | 74° |
| 2026-05-04 00:41 | 30.48765 | -81.72787 | 556 ft | 132 kts | 73° |
| 2026-05-04 00:42 | 30.49069 | -81.71779 | 401 ft | 130 kts | 71° |
| 2026-05-04 00:42 | 30.49375 | -81.70803 | 220 ft | 128 kts | 72° |
| 2026-05-04 00:42 | 30.49666 | -81.69855 | 55 ft | 120 kts | 73° |
| 2026-05-04 00:42 | 30.49917 | -81.69024 | 35 ft | 92 kts | 72° |
| 2026-05-04 00:43 | 30.50031 | -81.68588 | 36 ft | 35 kts | 90° |
| 2026-05-04 00:43 | 30.49970 | -81.68462 | 35 ft | 1 kts | 152° |
| 2026-05-04 00:43 | 30.49961 | -81.68456 | 35 ft | 3 kts | 151° |
| 2026-05-04 00:43 | 30.49935 | -81.68419 | 33 ft | 8 kts | 94° |
| 2026-05-04 00:44 | 30.49973 | -81.68275 | 34 ft | 28 kts | 71° |
| 2026-05-04 00:44 | 30.50031 | -81.68089 | 35 ft | 5 kts | 69° |
| 2026-05-04 00:44 | 30.50044 | -81.68046 | 33 ft | 6 kts | 70° |
| 2026-05-04 00:44 | 30.50050 | -81.68008 | 35 ft | 2 kts | 101° |
| 2026-05-04 00:45 | 30.50042 | -81.67990 | 35 ft | 3 kts | 121° |
| 2026-05-04 00:45 | 30.50029 | -81.67975 | 34 ft | 8 kts | 141° |
| 2026-05-04 00:45 | 30.49916 | -81.67931 | 34 ft | 25 kts | 162° |
| 2026-05-04 00:45 | 30.49768 | -81.67900 | 34 ft | 14 kts | 191° |
| 2026-05-04 00:46 | 30.49720 | -81.67911 | 34 ft | 3 kts | 191° |
| 2026-05-04 00:46 | 30.49678 | -81.67918 | 34 ft | 5 kts | 179° |
| 2026-05-04 00:46 | 30.49662 | -81.67915 | 34 ft | 1 kts | 159° |
| 2026-05-04 00:46 | 30.49654 | -81.67904 | 34 ft | 2 kts | 108° |
| 2026-05-04 00:47 | 30.49610 | -81.67816 | 34 ft | 7 kts | 167° |
| 2026-05-04 00:47 | 30.49577 | -81.67852 | 34 ft | 7 kts | 264° |
| 2026-05-04 00:47 | 30.49593 | -81.67878 | 34 ft | 4 kts | 325° |
| 2026-05-04 00:47 | 30.49598 | -81.67881 | 34 ft | 0 kts | 338° |
| 2026-05-04 00:48 | 30.49599 | -81.67881 | 34 ft | 0 kts | 341° |
| 2026-05-04 00:49 | 30.49671 | -81.67846 | 34 ft | 24 kts | 58° |
| 2026-05-04 00:49 | 30.49718 | -81.67802 | 34 ft | 0 kts | 20° |
| 2026-05-04 00:49 | 30.49719 | -81.67801 | 34 ft | 0 kts | 21° |
| 2026-05-04 00:50 | 30.49720 | -81.67800 | 34 ft | 0 kts | 24° |